Time;durP1;ratioP1;P1;durP2;ratioP2;P2;SDS_P1;SDS_P2;PMS_P1;PMS_P2;Temp;Humidity;BMP_temperature;BMP_pressure;BME280_temperature;BME280_humidity;BME280_pressure;Samples;Min_cycle;Max_cycle;Signal;HPM_P1;HPM_P2
2022/10/23 00:00:47;;;;;;;34.60;22.65;;;;;;;;;;5051990;28;20029;-65
2022/10/23 00:03:13;;;;;;;31.52;17.95;;;;;;;;;;5050748;28;20151;-65
2022/10/23 00:05:40;;;;;;;36.10;21.52;;;;;;;;;;5051215;28;20025;-66
2022/10/23 00:08:06;;;;;;;35.95;24.55;;;;;;;;;;5051512;28;20025;-66
2022/10/23 00:10:33;;;;;;;37.63;23.58;;;;;;;;;;5051554;28;20037;-66
2022/10/23 00:12:59;;;;;;;32.00;22.23;;;;;;;;;;5051744;28;20021;-66
2022/10/23 00:15:26;;;;;;;40.55;28.33;;;;;;;;;;5050661;28;20032;-66
2022/10/23 00:17:52;;;;;;;38.28;27.05;;;;;;;;;;5051137;28;20013;-65
2022/10/23 00:20:18;;;;;;;35.78;22.73;;;;;;;;;;5051377;28;20092;-65
2022/10/23 00:22:44;;;;;;;37.25;25.02;;;;;;;;;;5049922;28;20373;-66
2022/10/23 00:25:11;;;;;;;34.80;24.85;;;;;;;;;;5050877;28;20025;-66
2022/10/23 00:27:37;;;;;;;34.13;24.55;;;;;;;;;;5051032;28;20024;-65
2022/10/23 00:30:04;;;;;;;35.55;21.90;;;;;;;;;;5050266;28;20029;-66
2022/10/23 00:32:30;;;;;;;33.42;22.27;;;;;;;;;;5050940;28;20120;-66
2022/10/23 00:34:56;;;;;;;33.20;24.10;;;;;;;;;;5050821;28;20047;-66
2022/10/23 00:37:22;;;;;;;37.75;22.92;;;;;;;;;;5050956;28;20025;-65
2022/10/23 00:39:48;;;;;;;31.80;21.80;;;;;;;;;;5051137;28;20025;-66
2022/10/23 00:42:18;;;;;;;30.70;20.30;;;;;;;;;;5050674;28;20051;-66
2022/10/23 00:44:44;;;;;;;32.35;22.33;;;;;;;;;;5050593;28;20029;-66
2022/10/23 00:47:10;;;;;;;32.88;24.63;;;;;;;;;;5049270;28;20089;-66
2022/10/23 00:49:36;;;;;;;36.47;24.73;;;;;;;;;;5050857;28;20069;-66
2022/10/23 00:52:03;;;;;;;29.75;21.45;;;;;;;;;;5050676;28;20496;-65
2022/10/23 00:54:32;;;;;;;31.95;23.25;;;;;;;;;;5049228;28;20029;-66
2022/10/23 00:57:00;;;;;;;34.30;23.65;;;;;;;;;;5050600;28;20473;-66
2022/10/23 00:59:27;;;;;;;33.03;23.73;;;;;;;;;;5050412;28;20104;-66
2022/10/23 01:01:53;;;;;;;33.80;23.65;;;;;;;;;;5050694;28;20473;-66
2022/10/23 01:04:19;;;;;;;33.65;23.98;;;;;;;;;;5049426;28;20079;-66
2022/10/23 01:06:54;;;;;;;39.05;27.00;;;;;;;;;;5049350;28;20063;-68
2022/10/23 01:09:27;;;;;;;37.80;28.10;;;;;;;;;;5050407;28;20029;-66
2022/10/23 01:12:11;;;;;;;31.67;22.65;;;;;;;;;;5049301;28;20031;-66
2022/10/23 01:14:37;;;;;;;37.13;26.80;;;;;;;;;;5048929;28;20036;-65
2022/10/23 01:17:24;;;;;;;34.47;25.48;;;;;;;;;;5049902;28;20024;-66
2022/10/23 01:20:08;;;;;;;32.75;23.40;;;;;;;;;;5050419;28;20036;-66
2022/10/23 01:22:53;;;;;;;35.97;23.02;;;;;;;;;;5050218;28;20100;-67
2022/10/23 01:25:27;;;;;;;33.92;24.85;;;;;;;;;;5050159;28;20114;-66
2022/10/23 01:27:59;;;;;;;30.80;22.60;;;;;;;;;;5050191;28;20025;-66
2022/10/23 01:30:25;;;;;;;39.30;24.13;;;;;;;;;;5050276;28;20116;-66
2022/10/23 01:33:00;;;;;;;35.30;24.23;;;;;;;;;;5050123;28;20075;-66
2022/10/23 01:35:45;;;;;;;35.33;25.52;;;;;;;;;;5050332;28;20025;-66
2022/10/23 01:38:14;;;;;;;31.33;22.25;;;;;;;;;;5049977;28;20151;-66
2022/10/23 01:40:57;;;;;;;36.42;24.77;;;;;;;;;;5050088;28;20070;-66
2022/10/23 01:43:29;;;;;;;34.60;23.20;;;;;;;;;;5053737;28;20381;-66
2022/10/23 01:45:59;;;;;;;34.85;22.05;;;;;;;;;;5054085;28;20056;-66
2022/10/23 01:48:26;;;;;;;35.45;24.25;;;;;;;;;;5052604;28;20088;-66
2022/10/23 01:50:54;;;;;;;32.13;21.30;;;;;;;;;;5054063;28;20396;-66
2022/10/23 01:53:20;;;;;;;32.40;22.60;;;;;;;;;;5053737;28;20059;-65
2022/10/23 01:55:47;;;;;;;34.60;22.27;;;;;;;;;;5053820;28;20056;-67
2022/10/23 01:58:14;;;;;;;35.85;22.88;;;;;;;;;;5053705;28;20431;-66
2022/10/23 02:00:42;;;;;;;32.93;22.40;;;;;;;;;;5053776;28;20401;-66
2022/10/23 02:03:09;;;;;;;37.53;22.33;;;;;;;;;;5053572;28;20029;-66
2022/10/23 02:05:35;;;;;;;34.10;22.65;;;;;;;;;;5053782;28;20033;-64
2022/10/23 02:08:01;;;;;;;30.73;21.58;;;;;;;;;;5052579;28;20432;-66
2022/10/23 02:10:47;;;;;;;29.80;20.67;;;;;;;;;;5053614;28;20095;-66
2022/10/23 02:13:13;;;;;;;35.50;21.55;;;;;;;;;;5053293;28;20070;-66
2022/10/23 02:15:48;;;;;;;30.80;20.38;;;;;;;;;;5053461;28;20122;-66
2022/10/23 02:18:23;;;;;;;31.10;19.85;;;;;;;;;;5053447;28;20036;-66
2022/10/23 02:20:55;;;;;;;30.23;22.88;;;;;;;;;;5052320;28;20044;-67
2022/10/23 02:23:23;;;;;;;29.80;20.35;;;;;;;;;;5053338;28;20094;-66
2022/10/23 02:26:07;;;;;;;31.63;21.98;;;;;;;;;;5053496;28;20029;-66
2022/10/23 02:28:45;;;;;;;29.90;20.92;;;;;;;;;;5053440;28;20393;-65
2022/10/23 02:31:13;;;;;;;33.80;22.02;;;;;;;;;;5051991;28;20397;-66
2022/10/23 02:33:39;;;;;;;35.33;21.33;;;;;;;;;;5053185;28;20021;-66
2022/10/23 02:36:05;;;;;;;30.60;21.33;;;;;;;;;;5053224;28;20099;-66
2022/10/23 02:38:31;;;;;;;29.80;18.83;;;;;;;;;;5053048;28;20040;-67
2022/10/23 02:40:58;;;;;;;29.08;19.25;;;;;;;;;;5053262;28;20025;-67
2022/10/23 02:43:27;;;;;;;33.53;20.48;;;;;;;;;;5052935;28;20033;-65
2022/10/23 02:46:02;;;;;;;32.33;21.38;;;;;;;;;;5051796;28;20128;-66
2022/10/23 02:48:38;;;;;;;32.85;21.35;;;;;;;;;;5052885;28;20398;-66
2022/10/23 02:51:14;;;;;;;28.02;20.17;;;;;;;;;;5052945;28;20028;-65
2022/10/23 02:53:43;;;;;;;28.40;19.58;;;;;;;;;;5050595;28;20025;-66
2022/10/23 02:56:16;;;;;;;28.42;19.30;;;;;;;;;;5053125;28;20028;-66
2022/10/23 02:59:01;;;;;;;26.48;19.95;;;;;;;;;;5052701;28;20024;-68
2022/10/23 03:01:29;;;;;;;29.52;20.38;;;;;;;;;;5052817;28;20029;-65
2022/10/23 03:03:57;;;;;;;29.05;19.73;;;;;;;;;;5052867;28;20025;-65
2022/10/23 03:06:23;;;;;;;28.83;19.40;;;;;;;;;;5053170;28;20087;-65
2022/10/23 03:08:52;;;;;;;27.80;18.92;;;;;;;;;;5052686;28;20043;-65
2022/10/23 03:11:18;;;;;;;29.02;19.33;;;;;;;;;;5051694;28;20025;-65
2022/10/23 03:13:44;;;;;;;26.88;19.15;;;;;;;;;;5050970;28;20029;-66
2022/10/23 03:16:10;;;;;;;28.58;18.95;;;;;;;;;;5052525;28;20029;-66
2022/10/23 03:18:36;;;;;;;27.10;18.85;;;;;;;;;;5051205;28;20064;-66
2022/10/23 03:21:02;;;;;;;29.35;19.80;;;;;;;;;;5051315;28;20119;-67
2022/10/23 03:23:28;;;;;;;29.35;19.88;;;;;;;;;;5052237;28;20033;-66
2022/10/23 03:25:55;;;;;;;27.55;20.88;;;;;;;;;;5050977;28;20021;-66
2022/10/23 03:28:21;;;;;;;33.00;20.17;;;;;;;;;;5052334;28;20029;-66
2022/10/23 03:30:48;;;;;;;26.63;19.08;;;;;;;;;;5052124;28;20528;-66
2022/10/23 03:33:14;;;;;;;29.85;19.58;;;;;;;;;;5052201;28;20033;-65
2022/10/23 03:35:40;;;;;;;27.30;19.13;;;;;;;;;;5051012;28;20032;-66
2022/10/23 03:38:06;;;;;;;27.58;19.08;;;;;;;;;;5052123;28;20354;-66
2022/10/23 03:40:32;;;;;;;26.40;18.20;;;;;;;;;;5050845;28;20032;-66
2022/10/23 03:42:58;;;;;;;27.40;18.98;;;;;;;;;;5052228;28;20452;-66
2022/10/23 03:45:24;;;;;;;28.35;18.00;;;;;;;;;;5051789;28;20036;-66
2022/10/23 03:47:50;;;;;;;25.95;17.90;;;;;;;;;;5051847;28;20032;-66
2022/10/23 03:50:17;;;;;;;29.88;18.17;;;;;;;;;;5051758;28;20027;-67
2022/10/23 03:52:43;;;;;;;29.10;18.10;;;;;;;;;;5051929;28;20112;-68
2022/10/23 03:55:09;;;;;;;29.05;18.27;;;;;;;;;;5051672;28;20044;-66
2022/10/23 03:57:35;;;;;;;27.63;17.75;;;;;;;;;;5051634;28;20425;-66
2022/10/23 04:00:01;;;;;;;26.85;17.50;;;;;;;;;;5051789;28;20033;-66
2022/10/23 04:02:27;;;;;;;30.15;18.40;;;;;;;;;;5051680;28;20029;-67
2022/10/23 04:04:54;;;;;;;29.38;17.15;;;;;;;;;;5051349;28;20082;-66
2022/10/23 04:07:20;;;;;;;27.80;17.52;;;;;;;;;;5051638;28;20072;-66
2022/10/23 04:09:46;;;;;;;25.17;17.48;;;;;;;;;;5051405;28;20033;-67
2022/10/23 04:12:12;;;;;;;25.20;16.98;;;;;;;;;;5051607;28;20043;-66
2022/10/23 04:14:38;;;;;;;27.08;17.48;;;;;;;;;;5051119;28;20032;-66
2022/10/23 04:17:04;;;;;;;25.83;17.33;;;;;;;;;;5051306;28;20385;-66
2022/10/23 04:19:30;;;;;;;28.13;17.42;;;;;;;;;;5051392;28;20029;-66
2022/10/23 04:21:56;;;;;;;26.88;16.75;;;;;;;;;;5051202;28;20029;-66
2022/10/23 04:24:23;;;;;;;23.73;17.38;;;;;;;;;;5049649;28;20032;-66
2022/10/23 04:26:49;;;;;;;24.58;18.33;;;;;;;;;;5051264;28;20035;-66
2022/10/23 04:29:15;;;;;;;35.35;18.27;;;;;;;;;;5049609;28;20060;-66
2022/10/23 04:31:41;;;;;;;25.95;17.67;;;;;;;;;;5051250;28;20021;-66
2022/10/23 04:34:07;;;;;;;25.92;17.52;;;;;;;;;;5051062;28;20032;-66
2022/10/23 04:36:33;;;;;;;25.88;17.92;;;;;;;;;;5051077;28;20374;-66
2022/10/23 04:38:59;;;;;;;31.98;17.88;;;;;;;;;;5050988;28;20082;-66
2022/10/23 04:41:25;;;;;;;29.95;18.33;;;;;;;;;;5050875;28;20384;-65
2022/10/23 04:43:51;;;;;;;28.63;18.27;;;;;;;;;;5050645;28;20033;-67
2022/10/23 04:46:17;;;;;;;33.92;19.52;;;;;;;;;;5050871;28;20084;-66
2022/10/23 04:48:43;;;;;;;25.90;18.20;;;;;;;;;;5091204;22;20089;-62
2022/10/23 04:51:09;;;;;;;28.02;18.70;;;;;;;;;;5090872;28;20036;-62
2022/10/23 04:53:37;;;;;;;27.25;18.98;;;;;;;;;;5092000;28;20472;-61
2022/10/23 04:56:03;;;;;;;26.02;17.85;;;;;;;;;;5092345;28;20022;-62
2022/10/23 04:58:29;;;;;;;32.80;23.05;;;;;;;;;;5103179;28;20031;-62
2022/10/23 05:00:56;;;;;;;41.35;27.02;;;;;;;;;;5112189;28;20030;-60
2022/10/23 05:03:23;;;;;;;36.80;24.85;;;;;;;;;;5111942;28;20521;-62
2022/10/23 05:05:51;;;;;;;34.38;22.67;;;;;;;;;;5111283;28;20035;-62
2022/10/23 05:08:17;;;;;;;33.50;19.92;;;;;;;;;;5112366;28;20023;-62
2022/10/23 05:10:43;;;;;;;30.05;19.33;;;;;;;;;;5112658;28;20115;-62
2022/10/23 05:13:09;;;;;;;26.35;18.05;;;;;;;;;;5112006;28;20048;-62
2022/10/23 05:15:35;;;;;;;27.50;17.48;;;;;;;;;;5112506;28;20035;-62
2022/10/23 05:18:09;;;;;;;25.80;16.73;;;;;;;;;;5110693;28;20023;-62
2022/10/23 05:20:36;;;;;;;23.67;16.85;;;;;;;;;;5112299;28;20027;-62
2022/10/23 05:23:02;;;;;;;27.08;16.38;;;;;;;;;;5112179;28;20024;-60
2022/10/23 05:25:29;;;;;;;25.85;17.95;;;;;;;;;;5112452;28;20028;-63
2022/10/23 05:27:55;;;;;;;30.10;17.83;;;;;;;;;;5112286;28;20415;-62
2022/10/23 05:30:21;;;;;;;27.25;17.65;;;;;;;;;;5112104;28;20123;-62
2022/10/23 05:32:47;;;;;;;24.75;16.73;;;;;;;;;;5112573;28;20095;-62
2022/10/23 05:35:17;;;;;;;29.92;18.02;;;;;;;;;;5111863;28;20039;-62
2022/10/23 05:37:44;;;;;;;26.52;16.80;;;;;;;;;;5112695;28;20066;-63
2022/10/23 05:40:11;;;;;;;27.53;19.53;;;;;;;;;;5112803;28;20016;-62
2022/10/23 05:42:37;;;;;;;23.65;17.98;;;;;;;;;;5112941;28;20047;-62
2022/10/23 05:45:03;;;;;;;25.42;17.55;;;;;;;;;;5112313;28;20055;-62
2022/10/23 05:47:30;;;;;;;26.00;17.17;;;;;;;;;;5110581;28;20019;-56
2022/10/23 05:49:56;;;;;;;27.38;16.80;;;;;;;;;;5111946;28;20020;-62
2022/10/23 05:52:23;;;;;;;28.13;19.58;;;;;;;;;;5111933;28;20518;-62
2022/10/23 05:54:50;;;;;;;26.75;17.33;;;;;;;;;;5110359;28;20087;-62
2022/10/23 05:57:17;;;;;;;26.33;17.02;;;;;;;;;;5111832;28;20079;-62
2022/10/23 05:59:43;;;;;;;26.58;17.20;;;;;;;;;;5110177;28;20394;-62
2022/10/23 06:02:09;;;;;;;27.10;17.42;;;;;;;;;;5111870;28;20024;-63
2022/10/23 06:04:35;;;;;;;24.02;16.73;;;;;;;;;;5111594;28;20027;-62
2022/10/23 06:07:02;;;;;;;28.20;17.73;;;;;;;;;;5110709;28;20028;-62
2022/10/23 06:09:29;;;;;;;25.08;17.33;;;;;;;;;;5111773;28;20040;-60
2022/10/23 06:11:55;;;;;;;27.50;16.83;;;;;;;;;;5111690;28;20446;-63
2022/10/23 06:14:21;;;;;;;28.13;18.08;;;;;;;;;;5111686;28;20535;-62
2022/10/23 06:16:47;;;;;;;29.58;17.58;;;;;;;;;;5110622;28;20055;-62
2022/10/23 06:19:13;;;;;;;30.08;19.33;;;;;;;;;;5111848;28;20391;-61
2022/10/23 06:21:39;;;;;;;33.45;20.17;;;;;;;;;;5112152;28;20024;-62
2022/10/23 06:24:06;;;;;;;28.10;18.33;;;;;;;;;;5111740;28;20034;-62
2022/10/23 06:26:32;;;;;;;26.55;18.98;;;;;;;;;;5111643;28;20031;-62
2022/10/23 06:28:58;;;;;;;27.30;18.58;;;;;;;;;;5111463;28;20063;-61
2022/10/23 06:31:27;;;;;;;24.02;17.98;;;;;;;;;;5115333;28;20092;-60
2022/10/23 06:33:54;;;;;;;24.35;18.00;;;;;;;;;;5115243;28;20054;-63
2022/10/23 06:36:20;;;;;;;25.13;17.92;;;;;;;;;;5115453;28;20076;-61
2022/10/23 06:38:48;;;;;;;25.80;17.88;;;;;;;;;;5115043;28;20019;-62
2022/10/23 06:41:15;;;;;;;28.20;17.85;;;;;;;;;;5115246;28;20027;-61
2022/10/23 06:43:41;;;;;;;24.20;17.33;;;;;;;;;;5115026;28;20031;-62
2022/10/23 06:46:07;;;;;;;28.23;18.60;;;;;;;;;;5115133;28;20495;-63
2022/10/23 06:48:33;;;;;;;25.33;17.23;;;;;;;;;;5114806;28;20062;-62
2022/10/23 06:51:03;;;;;;;27.77;17.48;;;;;;;;;;5114858;28;20463;-62
2022/10/23 06:53:29;;;;;;;28.17;18.48;;;;;;;;;;5114748;28;20035;-62
2022/10/23 06:55:59;;;;;;;32.72;19.40;;;;;;;;;;5114967;28;20024;-59
2022/10/23 06:58:25;;;;;;;26.75;17.85;;;;;;;;;;5114715;28;20356;-59
2022/10/23 07:00:51;;;;;;;25.58;17.63;;;;;;;;;;5114701;28;20102;-59
2022/10/23 07:03:17;;;;;;;24.95;17.48;;;;;;;;;;5114468;28;20466;-57
2022/10/23 07:05:46;;;;;;;28.08;18.90;;;;;;;;;;5114369;28;20028;-58
2022/10/23 07:08:13;;;;;;;24.33;19.45;;;;;;;;;;5114572;28;20027;-60
2022/10/23 07:10:42;;;;;;;25.98;19.05;;;;;;;;;;5114645;28;20040;-59
2022/10/23 07:13:09;;;;;;;26.90;18.98;;;;;;;;;;5114233;28;20031;-56
2022/10/23 07:15:35;;;;;;;23.33;17.17;;;;;;;;;;5114624;28;20031;-57
2022/10/23 07:18:01;;;;;;;24.58;17.30;;;;;;;;;;5114573;28;20024;-69
2022/10/23 07:20:27;;;;;;;27.00;17.42;;;;;;;;;;5114018;28;20019;-64
2022/10/23 07:22:54;;;;;;;23.98;16.50;;;;;;;;;;5114449;28;20031;-64
2022/10/23 07:25:21;;;;;;;24.35;17.15;;;;;;;;;;5113944;28;20024;-58
2022/10/23 07:27:47;;;;;;;22.95;16.27;;;;;;;;;;5113980;28;20049;-54
2022/10/23 07:30:13;;;;;;;23.83;15.90;;;;;;;;;;5114027;28;20024;-58
2022/10/23 07:32:40;;;;;;;21.50;14.85;;;;;;;;;;5107038;28;20016;-59
2022/10/23 07:35:06;;;;;;;23.52;14.82;;;;;;;;;;5093347;28;20046;-58
2022/10/23 07:37:32;;;;;;;23.75;15.25;;;;;;;;;;5093505;28;20357;-57
2022/10/23 07:39:58;;;;;;;22.98;15.18;;;;;;;;;;5092039;28;20457;-59
2022/10/23 07:42:24;;;;;;;23.42;15.00;;;;;;;;;;5093617;28;20070;-57
2022/10/23 07:44:50;;;;;;;31.80;23.30;;;;;;;;;;5093273;28;20051;-58
2022/10/23 07:47:16;;;;;;;23.30;14.38;;;;;;;;;;5093270;28;20472;-59
2022/10/23 07:49:42;;;;;;;23.08;14.45;;;;;;;;;;5093162;28;20107;-61
2022/10/23 07:52:10;;;;;;;25.17;14.07;;;;;;;;;;5093245;28;20421;-58
2022/10/23 07:54:36;;;;;;;23.93;15.43;;;;;;;;;;5091817;28;20024;-59
2022/10/23 07:57:02;;;;;;;20.55;13.55;;;;;;;;;;5093221;28;20089;-53
2022/10/23 07:59:28;;;;;;;21.63;12.57;;;;;;;;;;5110723;28;20081;-58
2022/10/23 08:01:55;;;;;;;23.35;13.82;;;;;;;;;;5113735;28;20434;-55
2022/10/23 08:04:21;;;;;;;24.40;12.75;;;;;;;;;;5113496;28;20039;-55
2022/10/23 08:06:48;;;;;;;22.60;13.25;;;;;;;;;;5113574;27;20395;-58
2022/10/23 08:09:14;;;;;;;20.90;13.52;;;;;;;;;;5113290;28;20032;-59
2022/10/23 08:11:40;;;;;;;20.80;13.07;;;;;;;;;;5113544;28;20110;-60
2022/10/23 08:14:07;;;;;;;20.23;12.82;;;;;;;;;;5113324;28;20080;-60
2022/10/23 08:16:34;;;;;;;24.55;13.10;;;;;;;;;;5113561;28;20428;-59
2022/10/23 08:19:00;;;;;;;21.05;12.60;;;;;;;;;;5112128;28;20024;-61
2022/10/23 08:21:26;;;;;;;22.20;12.93;;;;;;;;;;5113104;28;20023;-60
2022/10/23 08:23:55;;;;;;;20.13;12.00;;;;;;;;;;5112908;28;20027;-62
2022/10/23 08:26:22;;;;;;;19.95;12.27;;;;;;;;;;5111707;28;20449;-65
2022/10/23 08:28:48;;;;;;;19.23;12.48;;;;;;;;;;5112919;28;20155;-62
2022/10/23 08:31:15;;;;;;;21.30;13.23;;;;;;;;;;5112942;28;20016;-65
2022/10/23 08:33:41;;;;;;;25.85;13.57;;;;;;;;;;5112720;28;20360;-65
2022/10/23 08:36:18;;;;;;;22.23;12.82;;;;;;;;;;5112933;28;20016;-64
2022/10/23 08:38:44;;;;;;;24.05;14.00;;;;;;;;;;5112804;28;20042;-65
2022/10/23 08:41:30;;;;;;;20.67;11.98;;;;;;;;;;5112963;28;20391;-64
2022/10/23 08:44:16;;;;;;;18.75;10.90;;;;;;;;;;5112241;28;20073;-65
2022/10/23 08:46:44;;;;;;;21.00;12.02;;;;;;;;;;5080247;27;20035;-64
2022/10/23 08:49:34;;;;;;;19.10;11.25;;;;;;;;;;5110266;28;20036;-61
2022/10/23 08:52:02;;;;;;;19.10;11.48;;;;;;;;;;5111297;28;20111;-63
2022/10/23 08:54:30;;;;;;;18.30;10.77;;;;;;;;;;5111477;28;20022;-64
2022/10/23 08:56:59;;;;;;;19.30;11.32;;;;;;;;;;5110674;28;20024;-63
2022/10/23 08:59:27;;;;;;;19.52;12.00;;;;;;;;;;5112119;28;20484;-63
2022/10/23 09:01:59;;;;;;;17.92;10.55;;;;;;;;;;5111138;28;20030;-65
2022/10/23 09:04:25;;;;;;;18.13;10.70;;;;;;;;;;5110677;28;20023;-60
2022/10/23 09:07:03;;;;;;;18.80;9.98;;;;;;;;;;5112316;28;20027;-64
2022/10/23 09:09:37;;;;;;;19.15;10.63;;;;;;;;;;5110933;28;20027;-64
2022/10/23 09:12:03;;;;;;;19.48;10.77;;;;;;;;;;5111258;28;20047;-63
2022/10/23 09:14:41;;;;;;;16.73;9.85;;;;;;;;;;5112093;28;20028;-63
2022/10/23 09:17:16;;;;;;;19.83;9.95;;;;;;;;;;5112069;28;20099;-63
2022/10/23 09:19:44;;;;;;;18.02;9.88;;;;;;;;;;5112392;28;20028;-64
2022/10/23 09:22:10;;;;;;;22.17;11.10;;;;;;;;;;5112072;28;20027;-64
2022/10/23 09:24:36;;;;;;;20.10;10.60;;;;;;;;;;5112005;28;20154;-64
2022/10/23 09:27:02;;;;;;;18.88;10.18;;;;;;;;;;5110620;28;20126;-64
2022/10/23 09:29:34;;;;;;;17.25;9.27;;;;;;;;;;5110619;28;20058;-63
2022/10/23 09:32:01;;;;;;;20.60;11.40;;;;;;;;;;5110761;28;20044;-63
2022/10/23 09:34:28;;;;;;;17.00;9.32;;;;;;;;;;5111588;28;20027;-63
2022/10/23 09:36:56;;;;;;;20.63;11.77;;;;;;;;;;5111869;28;20096;-61
2022/10/23 09:39:23;;;;;;;17.45;10.10;;;;;;;;;;5111803;28;20491;-64
2022/10/23 09:41:49;;;;;;;19.53;9.63;;;;;;;;;;5111828;28;20043;-63
2022/10/23 09:44:45;;;;;;;18.73;10.77;;;;;;;;;;5111619;28;20265;-63
2022/10/23 09:47:11;;;;;;;21.30;9.98;;;;;;;;;;5098408;28;20036;-64
2022/10/23 09:49:38;;;;;;;16.27;8.93;;;;;;;;;;5111903;28;20030;-63
2022/10/23 09:52:19;;;;;;;19.55;10.35;;;;;;;;;;5110637;28;20020;-63
2022/10/23 09:54:50;;;;;;;19.85;10.35;;;;;;;;;;5112100;28;20070;-65
2022/10/23 09:57:22;;;;;;;18.83;10.27;;;;;;;;;;5110592;28;20024;-62
2022/10/23 09:59:56;;;;;;;22.23;10.95;;;;;;;;;;5112095;28;20480;-63
2022/10/23 10:02:25;;;;;;;18.52;10.40;;;;;;;;;;5112222;28;20058;-63
2022/10/23 10:04:51;;;;;;;24.65;16.52;;;;;;;;;;5115428;27;20073;-63
2022/10/23 10:07:19;;;;;;;20.10;10.13;;;;;;;;;;5115430;28;20035;-63
2022/10/23 10:09:45;;;;;;;19.10;10.20;;;;;;;;;;5115403;28;20374;-63
2022/10/23 10:12:30;;;;;;;19.55;9.57;;;;;;;;;;5115727;28;20054;-57
2022/10/23 10:15:16;;;;;;;18.58;9.68;;;;;;;;;;5105492;28;20506;-58
2022/10/23 10:17:51;;;;;;;17.95;9.30;;;;;;;;;;5102787;28;20062;-63
2022/10/23 10:20:17;;;;;;;19.75;10.68;;;;;;;;;;5102424;28;20089;-60
2022/10/23 10:22:50;;;;;;;18.77;9.05;;;;;;;;;;5102968;28;20471;-61
2022/10/23 10:25:24;;;;;;;18.65;9.07;;;;;;;;;;5107753;28;20056;-60
2022/10/23 10:28:06;;;;;;;19.17;9.23;;;;;;;;;;5101296;28;20019;-61
2022/10/23 10:30:55;;;;;;;21.33;9.18;;;;;;;;;;5105964;28;20028;-59
2022/10/23 10:33:21;;;;;;;33.85;23.88;;;;;;;;;;5103988;28;20016;-59
2022/10/23 10:35:50;;;;;;;20.48;11.82;;;;;;;;;;5108018;28;20036;-62
2022/10/23 10:38:40;;;;;;;24.38;15.88;;;;;;;;;;5102601;28;20125;-61
2022/10/23 10:41:09;;;;;;;21.05;12.52;;;;;;;;;;5100481;28;20035;-60
2022/10/23 10:43:35;;;;;;;20.27;11.50;;;;;;;;;;5107625;28;20032;-64
2022/10/23 10:46:19;;;;;;;17.60;9.52;;;;;;;;;;5105141;28;20087;-62
2022/10/23 10:49:04;;;;;;;22.02;12.93;;;;;;;;;;5105205;28;20122;-62
2022/10/23 10:51:30;;;;;;;18.58;9.27;;;;;;;;;;5102662;28;20043;-61
2022/10/23 10:54:08;;;;;;;17.17;10.18;;;;;;;;;;5103101;28;20082;-62
2022/10/23 10:56:36;;;;;;;18.30;9.55;;;;;;;;;;5100634;28;20488;-62
2022/10/23 10:59:06;;;;;;;24.95;14.80;;;;;;;;;;5112689;22;20067;-63
2022/10/23 11:01:44;;;;;;;15.90;8.63;;;;;;;;;;5071899;28;20032;-64
2022/10/23 11:04:10;;;;;;;;;;;;;;;;;;5070398;28;20021;-64
2022/10/23 11:06:37;;;;;;;16.92;8.10;;;;;;;;;;5070802;28;20397;-64
2022/10/23 11:09:14;;;;;;;20.15;12.43;;;;;;;;;;5069801;28;20024;-64
2022/10/23 11:11:40;;;;;;;17.58;8.80;;;;;;;;;;5091073;28;20032;-64
2022/10/23 11:14:13;;;;;;;17.92;8.48;;;;;;;;;;5091748;28;20020;-66
2022/10/23 11:16:42;;;;;;;20.65;8.27;;;;;;;;;;5091388;28;20050;-63
2022/10/23 11:19:08;;;;;;;;;;;;;;;;;;5092907;28;20640;-64
2022/10/23 11:21:38;;;;;;;14.93;8.00;;;;;;;;;;5092399;28;19908;-65
2022/10/23 11:24:04;;;;;;;17.20;8.05;;;;;;;;;;5079326;28;20028;-66
2022/10/23 11:26:36;;;;;;;18.17;8.35;;;;;;;;;;5071960;28;20573;-65
2022/10/23 11:29:07;;;;;;;17.10;8.30;;;;;;;;;;5088951;28;20038;-64
2022/10/23 11:31:37;;;;;;;16.10;8.35;;;;;;;;;;5092485;28;20480;-64
2022/10/23 11:34:12;;;;;;;19.35;8.43;;;;;;;;;;5092189;28;20020;-65
2022/10/23 11:36:46;;;;;;;19.27;8.15;;;;;;;;;;5091063;28;20069;-65
2022/10/23 11:39:20;;;;;;;16.42;8.27;;;;;;;;;;5092024;28;20024;-65
2022/10/23 11:41:52;;;;;;;16.80;7.93;;;;;;;;;;5092127;28;20089;-65
2022/10/23 11:44:38;;;;;;;19.20;8.05;;;;;;;;;;5091875;28;20488;-63
2022/10/23 11:47:05;;;;;;;19.98;7.82;;;;;;;;;;5090742;28;20073;-65
2022/10/23 11:49:32;;;;;;;16.25;8.52;;;;;;;;;;5091780;28;20035;-65
2022/10/23 11:52:04;;;;;;;16.95;8.13;;;;;;;;;;5091971;28;20073;-66
2022/10/23 11:54:31;;;;;;;16.50;8.52;;;;;;;;;;5090287;28;20028;-65
2022/10/23 11:57:06;;;;;;;15.25;7.70;;;;;;;;;;5091771;28;20392;-63
2022/10/23 11:59:37;;;;;;;15.73;8.27;;;;;;;;;;5091531;28;20446;-65
2022/10/23 12:02:18;;;;;;;16.52;7.97;;;;;;;;;;5091812;28;20024;-65
2022/10/23 12:04:49;;;;;;;17.83;8.55;;;;;;;;;;5091648;28;20035;-66
2022/10/23 12:07:23;;;;;;;16.80;8.00;;;;;;;;;;5091860;28;20028;-65
2022/10/23 12:09:55;;;;;;;15.80;7.55;;;;;;;;;;5091676;28;20028;-65
2022/10/23 12:12:39;;;;;;;17.17;7.80;;;;;;;;;;5091893;28;20024;-64
2022/10/23 12:15:14;;;;;;;19.98;8.60;;;;;;;;;;5091434;28;20020;-67
2022/10/23 12:17:41;;;;;;;17.25;9.02;;;;;;;;;;5090463;28;20024;-66
2022/10/23 12:20:07;;;;;;;16.77;8.02;;;;;;;;;;5085317;28;20392;-64
2022/10/23 12:22:41;;;;;;;17.83;7.95;;;;;;;;;;5086196;28;20365;-65
2022/10/23 12:25:10;;;;;;;15.13;8.20;;;;;;;;;;5070509;28;20111;-65
2022/10/23 12:27:39;;;;;;;15.82;8.40;;;;;;;;;;5070258;28;20035;-62
2022/10/23 12:30:23;;;;;;;15.48;8.25;;;;;;;;;;5070825;28;20505;-65
2022/10/23 12:33:08;;;;;;;15.77;7.93;;;;;;;;;;5071230;28;20485;-65
2022/10/23 12:35:56;;;;;;;15.20;8.20;;;;;;;;;;5070795;28;20131;-63
2022/10/23 12:38:24;;;;;;;19.50;8.30;;;;;;;;;;5070946;28;20060;-65
2022/10/23 12:41:08;;;;;;;16.50;7.70;;;;;;;;;;5071008;28;20025;-64
2022/10/23 12:43:35;;;;;;;16.35;8.35;;;;;;;;;;5071354;28;20025;-64
2022/10/23 12:46:07;;;;;;;20.08;9.50;;;;;;;;;;5073360;28;20044;-64
2022/10/23 12:48:33;;;;;;;17.27;8.80;;;;;;;;;;5071013;28;20032;-64
2022/10/23 12:50:59;;;;;;;18.33;8.93;;;;;;;;;;5069969;28;20024;-63
2022/10/23 12:53:25;;;;;;;15.73;8.38;;;;;;;;;;5070814;28;20145;-64
2022/10/23 12:55:51;;;;;;;19.08;8.40;;;;;;;;;;5070647;28;20142;-63
2022/10/23 12:58:31;;;;;;;16.02;7.93;;;;;;;;;;5077754;28;20429;-64
2022/10/23 13:00:58;;;;;;;17.58;8.35;;;;;;;;;;5090636;28;20163;-65
2022/10/23 13:03:25;;;;;;;16.25;8.63;;;;;;;;;;5090337;28;20028;-67
2022/10/23 13:05:53;;;;;;;19.23;9.13;;;;;;;;;;5090458;28;20119;-65
2022/10/23 13:08:20;;;;;;;16.95;8.50;;;;;;;;;;5090772;28;20032;-66
2022/10/23 13:10:50;;;;;;;16.15;8.20;;;;;;;;;;5090609;28;20051;-66
2022/10/23 13:13:19;;;;;;;15.63;8.27;;;;;;;;;;5089049;28;20063;-66
2022/10/23 13:15:45;;;;;;;17.63;8.80;;;;;;;;;;5089417;28;20494;-65
2022/10/23 13:18:13;;;;;;;17.23;9.10;;;;;;;;;;5090227;28;20111;-66
2022/10/23 13:20:43;;;;;;;16.63;9.27;;;;;;;;;;5090664;28;20571;-63
2022/10/23 13:23:12;;;;;;;17.20;8.82;;;;;;;;;;5090245;28;20111;-64
2022/10/23 13:25:38;;;;;;;15.73;8.15;;;;;;;;;;5090336;28;20036;-64
2022/10/23 13:28:07;;;;;;;16.17;8.52;;;;;;;;;;5090428;28;20527;-64
2022/10/23 13:30:36;;;;;;;16.25;8.35;;;;;;;;;;5090121;28;20616;-64
2022/10/23 13:33:13;;;;;;;16.08;8.00;;;;;;;;;;5090165;28;20016;-65
2022/10/23 13:35:39;;;;;;;18.52;8.30;;;;;;;;;;5089007;28;20066;-64
2022/10/23 13:38:08;;;;;;;19.35;8.95;;;;;;;;;;5091121;28;20739;-65
2022/10/23 13:40:34;;;;;;;19.38;9.32;;;;;;;;;;5094493;28;20465;-65
2022/10/23 13:43:01;;;;;;;19.30;9.40;;;;;;;;;;5094589;28;20035;-65
2022/10/23 13:45:27;;;;;;;15.73;9.60;;;;;;;;;;5094336;28;20063;-65
2022/10/23 13:47:53;;;;;;;17.23;9.35;;;;;;;;;;5094595;28;20020;-62
2022/10/23 13:50:19;;;;;;;16.48;10.57;;;;;;;;;;5093802;28;20024;-65
2022/10/23 13:52:45;;;;;;;17.35;9.52;;;;;;;;;;5094252;28;20058;-63
2022/10/23 13:55:17;;;;;;;16.92;9.25;;;;;;;;;;5094063;28;20035;-64
2022/10/23 13:57:43;;;;;;;15.90;8.90;;;;;;;;;;5095535;28;20052;-65
2022/10/23 14:00:10;;;;;;;17.58;9.73;;;;;;;;;;5114095;28;20078;-65
2022/10/23 14:02:36;;;;;;;23.10;10.60;;;;;;;;;;5114396;28;20051;-65
2022/10/23 14:05:02;;;;;;;20.23;10.43;;;;;;;;;;5114345;28;20483;-65
2022/10/23 14:07:28;;;;;;;20.33;10.98;;;;;;;;;;5114620;28;20055;-65
2022/10/23 14:09:54;;;;;;;17.35;9.80;;;;;;;;;;5114194;28;20036;-68
2022/10/23 14:12:20;;;;;;;17.60;10.07;;;;;;;;;;5114121;28;20019;-65
2022/10/23 14:14:50;;;;;;;17.95;9.43;;;;;;;;;;5114500;28;20024;-65
2022/10/23 14:17:16;;;;;;;17.55;10.27;;;;;;;;;;5114689;28;20328;-65
2022/10/23 14:19:42;;;;;;;21.75;11.85;;;;;;;;;;5113927;28;20028;-66
2022/10/23 14:22:08;;;;;;;18.20;9.90;;;;;;;;;;5113892;28;20038;-66
2022/10/23 14:24:34;;;;;;;21.20;11.90;;;;;;;;;;5113769;28;20070;-64
2022/10/23 14:27:00;;;;;;;18.50;10.52;;;;;;;;;;5105856;28;20020;-65
2022/10/23 14:29:26;;;;;;;19.95;11.95;;;;;;;;;;5092289;28;20032;-65
2022/10/23 14:31:52;;;;;;;18.63;10.82;;;;;;;;;;5093497;28;20049;-66